createdAt,value
2024-02-23T00:01:41.243Z,0.40
2024-02-23T00:04:43.185Z,0.77
2024-02-23T00:07:44.894Z,0.45
2024-02-23T00:10:47.477Z,0.40
2024-02-23T00:13:49.273Z,0.45
2024-02-23T00:16:50.963Z,0.73
2024-02-23T00:19:54.079Z,0.52
2024-02-23T00:22:55.778Z,0.38
2024-02-23T00:25:57.378Z,0.32
2024-02-23T00:28:59.259Z,0.50
2024-02-23T00:32:00.917Z,0.77
2024-02-23T00:35:02.560Z,0.20
2024-02-23T00:38:04.327Z,0.15
2024-02-23T00:41:06.141Z,0.30
2024-02-23T00:44:07.950Z,0.70
2024-02-23T00:47:10.826Z,0.43
2024-02-23T00:50:13.038Z,0.28
2024-02-23T00:53:14.843Z,0.57
2024-02-23T00:56:16.532Z,0.50
2024-02-23T00:59:18.233Z,0.47
2024-02-23T01:02:19.992Z,0.50
2024-02-23T01:05:21.703Z,0.40
2024-02-23T01:08:23.332Z,0.13
2024-02-23T01:11:25.088Z,0.30
2024-02-23T01:14:26.763Z,0.40
2024-02-23T01:17:28.592Z,0.50
2024-02-23T01:20:30.442Z,0.32
2024-02-23T01:23:32.118Z,0.32
2024-02-23T01:26:33.762Z,0.52
2024-02-23T01:29:35.483Z,0.70
2024-02-23T01:32:39.645Z,0.65
2024-02-23T01:35:41.622Z,0.60
2024-02-23T01:38:44.114Z,0.10
2024-02-23T01:41:45.803Z,0.20
2024-02-23T01:44:47.413Z,0.80
2024-02-23T01:47:49.076Z,0.10
2024-02-23T01:50:50.969Z,0.25
2024-02-23T01:53:53.032Z,0.50
2024-02-23T01:56:56.780Z,0.32
2024-02-23T01:59:58.521Z,0.85
2024-02-23T02:03:00.103Z,0.22
2024-02-23T02:06:01.932Z,0.57
2024-02-23T02:09:03.688Z,0.20
2024-02-23T02:12:05.693Z,0.60
2024-02-23T02:15:07.933Z,0.30
2024-02-23T02:18:09.530Z,0.55
2024-02-23T02:21:11.119Z,0.28
2024-02-23T02:24:15.207Z,0.60
2024-02-23T02:27:17.129Z,0.40
2024-02-23T02:30:18.905Z,0.20
2024-02-23T02:33:21.207Z,0.40
2024-02-23T02:36:22.894Z,0.60
2024-02-23T02:39:24.500Z,0.20
2024-02-23T02:42:26.210Z,0.45
2024-02-23T02:45:27.928Z,0.30
2024-02-23T02:48:29.557Z,0.50
2024-02-23T02:51:31.246Z,0.63
2024-02-23T02:54:33.144Z,0.50
2024-02-23T02:57:34.964Z,0.35
2024-02-23T03:00:36.684Z,0.10
2024-02-23T03:03:38.348Z,0.63
2024-02-23T03:06:40.224Z,0.38
2024-02-23T03:09:41.888Z,0.65
2024-02-23T03:12:43.984Z,0.28
2024-02-23T03:15:45.841Z,0.40
2024-02-23T03:18:48.002Z,0.13
2024-02-23T03:21:49.616Z,0.75
2024-02-23T03:24:51.262Z,0.22
2024-02-23T03:27:52.886Z,0.60
2024-02-23T03:30:54.512Z,0.45
2024-02-23T03:33:56.296Z,0.77
2024-02-23T03:36:59.428Z,0.32
2024-02-23T03:40:02.204Z,0.77
2024-02-23T03:43:05.276Z,0.57
2024-02-23T03:46:07.641Z,0.40
2024-02-23T03:49:09.710Z,0.52
2024-02-23T03:52:11.375Z,0.82
2024-02-23T03:55:13.016Z,0.63
2024-02-23T03:58:14.672Z,0.63
2024-02-23T04:01:16.303Z,1.05
2024-02-23T04:04:18.898Z,0.38
2024-02-23T04:07:20.845Z,0.32
2024-02-23T04:10:22.437Z,0.40
2024-02-23T04:13:24.282Z,0.15
2024-02-23T04:16:26.224Z,0.55
2024-02-23T04:19:27.932Z,0.47
2024-02-23T04:22:29.525Z,0.50
2024-02-23T04:25:31.131Z,0.73
2024-02-23T04:28:34.738Z,0.43
2024-02-23T04:31:38.954Z,0.17
2024-02-23T04:34:41.567Z,0.52
2024-02-23T04:37:46.524Z,0.32
2024-02-23T04:40:48.210Z,0.70
2024-02-23T04:43:50.606Z,0.65
2024-02-23T04:46:52.315Z,0.68
2024-02-23T04:49:54.039Z,0.52
2024-02-23T04:52:55.709Z,0.43
2024-02-23T04:55:57.347Z,0.40
2024-02-23T04:58:59.068Z,0.68
2024-02-23T05:02:00.741Z,0.70
2024-02-23T05:05:05.700Z,0.32
2024-02-23T05:08:07.549Z,0.43
2024-02-23T05:11:09.398Z,0.25
2024-02-23T05:14:11.139Z,0.22
2024-02-23T05:17:12.774Z,0.30
2024-02-23T05:20:15.507Z,0.40
2024-02-23T05:23:17.841Z,0.35
2024-02-23T05:26:19.483Z,0.55
2024-02-23T05:29:23.560Z,0.47
2024-02-23T05:32:25.597Z,0.63
2024-02-23T05:35:27.878Z,0.63
2024-02-23T05:38:32.441Z,0.32
2024-02-23T05:41:34.807Z,0.35
2024-02-23T05:44:36.521Z,0.38
2024-02-23T05:47:45.044Z,0.63
2024-02-23T05:50:48.830Z,0.40
2024-02-23T05:53:50.973Z,0.88
2024-02-23T05:56:52.815Z,0.52
2024-02-23T05:59:54.977Z,0.40
2024-02-23T06:02:56.618Z,0.77
2024-02-23T06:05:58.389Z,0.90
2024-02-23T06:09:01.192Z,0.43
2024-02-23T06:12:02.965Z,0.73
2024-02-23T06:15:04.968Z,0.30
2024-02-23T06:18:06.870Z,0.32
2024-02-23T06:21:15.766Z,0.98
2024-02-23T06:24:17.980Z,0.25
2024-02-23T06:27:19.578Z,0.22
2024-02-23T06:30:21.988Z,0.65
2024-02-23T06:33:23.687Z,0.73
2024-02-23T06:36:25.337Z,0.60
2024-02-23T06:39:27.384Z,1.00
2024-02-23T06:42:28.994Z,0.63
2024-02-23T06:45:30.596Z,0.70
2024-02-23T06:48:33.599Z,0.90
2024-02-23T06:51:35.240Z,0.47
2024-02-23T06:54:37.119Z,0.82
2024-02-23T06:57:39.250Z,1.30
2024-02-23T07:00:40.887Z,0.82
2024-02-23T07:03:44.734Z,1.08
2024-02-23T07:06:46.494Z,0.82
2024-02-23T07:09:48.341Z,0.98
2024-02-23T07:12:49.913Z,1.65
2024-02-23T07:15:51.538Z,0.85
2024-02-23T07:18:53.212Z,1.55
2024-02-23T07:21:54.792Z,0.80
2024-02-23T07:24:56.419Z,0.82
2024-02-23T07:27:58.082Z,0.95
2024-02-23T07:30:59.684Z,1.23
2024-02-23T07:34:01.568Z,1.27
2024-02-23T07:37:03.957Z,0.77
2024-02-23T07:40:06.232Z,1.48
2024-02-23T07:43:07.800Z,0.50
2024-02-23T07:46:10.100Z,0.63
2024-02-23T07:49:11.943Z,0.80
2024-02-23T07:52:13.776Z,1.20
2024-02-23T07:55:17.420Z,1.63
2024-02-23T07:58:20.216Z,1.55
2024-02-23T08:01:21.897Z,0.90
2024-02-23T08:04:23.612Z,0.30
2024-02-23T08:07:26.803Z,1.00
2024-02-23T08:10:28.492Z,1.25
2024-02-23T08:13:30.126Z,1.17
2024-02-23T08:16:31.820Z,1.10
2024-02-23T08:19:33.393Z,1.20
2024-02-23T08:22:35.008Z,0.65
2024-02-23T08:25:37.660Z,0.80
2024-02-23T08:28:39.354Z,0.55
2024-02-23T08:31:42.689Z,0.10
2024-02-23T08:34:44.614Z,1.33
2024-02-23T08:37:46.335Z,0.38
2024-02-23T08:40:47.966Z,0.82
2024-02-23T08:43:51.023Z,0.63
2024-02-23T08:46:52.748Z,0.73
2024-02-23T08:49:54.530Z,0.47
2024-02-23T08:52:56.430Z,0.32
2024-02-23T08:55:58.836Z,0.40
2024-02-23T08:59:00.581Z,0.22
2024-02-23T09:02:02.219Z,0.35
2024-02-23T09:05:04.148Z,0.70
2024-02-23T09:08:06.844Z,0.22
2024-02-23T09:11:08.553Z,0.65
2024-02-23T09:14:10.198Z,0.77
2024-02-23T09:17:12.541Z,1.08
2024-02-23T09:20:14.413Z,1.23
2024-02-23T09:23:16.167Z,0.80
2024-02-23T09:26:19.193Z,0.50
2024-02-23T09:29:21.014Z,0.47
2024-02-23T09:32:22.743Z,0.52
2024-02-23T09:35:24.431Z,0.43
2024-02-23T09:38:26.645Z,0.60
2024-02-23T09:41:28.461Z,0.13
2024-02-23T09:44:35.660Z,0.22
2024-02-23T09:50:41.992Z,1.02
2024-02-23T09:53:43.765Z,1.33
2024-02-23T09:56:45.904Z,0.85
2024-02-23T09:59:50.327Z,0.50
2024-02-23T10:02:53.289Z,0.90
2024-02-23T10:05:55.197Z,0.60
2024-02-23T10:08:57.154Z,1.83
2024-02-23T10:11:58.975Z,0.60
2024-02-23T10:15:00.751Z,0.63
2024-02-23T10:18:02.353Z,0.98
2024-02-23T10:21:04.256Z,1.00
2024-02-23T10:24:08.983Z,1.33
2024-02-23T10:27:12.071Z,2.92
2024-02-23T10:30:16.174Z,2.72
2024-02-23T10:33:22.519Z,1.70
2024-02-23T10:36:30.403Z,0.88
2024-02-23T10:39:32.577Z,1.60
2024-02-23T10:42:36.631Z,2.33
2024-02-23T10:45:41.108Z,1.27
2024-02-23T10:48:45.683Z,0.95
2024-02-23T10:51:49.745Z,1.17
2024-02-23T10:54:53.045Z,1.88
2024-02-23T10:57:57.322Z,2.63
2024-02-23T11:01:05.527Z,3.72
2024-02-23T11:04:09.082Z,2.75
2024-02-23T11:07:15.224Z,6.38
2024-02-23T11:10:17.407Z,10.70
2024-02-23T11:13:19.614Z,2.13
2024-02-23T11:16:24.783Z,6.65
2024-02-23T11:19:38.216Z,2.85
2024-02-23T11:22:40.250Z,1.60
2024-02-23T11:25:42.231Z,2.17
2024-02-23T11:28:56.707Z,1.27
2024-02-23T11:32:02.763Z,2.00
2024-02-23T11:35:04.835Z,2.22
2024-02-23T11:38:07.993Z,5.85
2024-02-23T11:41:10.135Z,3.20
2024-02-23T11:44:14.662Z,1.65
2024-02-23T11:47:18.158Z,4.13
2024-02-23T11:50:22.011Z,4.30
2024-02-23T11:53:25.878Z,7.47
2024-02-23T11:56:28.032Z,12.15
2024-02-23T11:59:29.688Z,14.48
2024-02-23T12:02:31.402Z,7.85
2024-02-23T12:05:33.041Z,3.70
2024-02-23T12:08:40.755Z,3.75
2024-02-23T12:11:43.071Z,3.30
2024-02-23T12:14:46.148Z,2.75
2024-02-23T12:17:51.851Z,2.95
2024-02-23T12:20:54.207Z,4.53
2024-02-23T12:23:55.872Z,5.90
2024-02-23T12:26:57.773Z,6.32
2024-02-23T12:30:00.623Z,5.82
2024-02-23T12:33:12.473Z,3.13
2024-02-23T12:36:14.504Z,2.80
2024-02-23T12:39:16.092Z,1.90
2024-02-23T12:42:19.246Z,1.85
2024-02-23T12:45:20.863Z,2.60
2024-02-23T12:48:23.210Z,1.65
2024-02-23T12:51:27.836Z,1.52
2024-02-23T12:54:29.451Z,1.83
2024-02-23T12:57:31.006Z,2.13
2024-02-23T13:00:32.879Z,2.78
2024-02-23T13:03:36.165Z,2.47
2024-02-23T13:06:41.446Z,2.30
2024-02-23T13:09:43.435Z,3.38
2024-02-23T13:12:45.040Z,2.60
2024-02-23T13:15:48.068Z,2.25
2024-02-23T13:18:49.773Z,1.95
2024-02-23T13:21:51.499Z,2.90
2024-02-23T13:24:53.128Z,1.95
2024-02-23T13:27:54.730Z,2.17
2024-02-23T13:30:56.346Z,2.00
2024-02-23T13:34:00.179Z,2.80
2024-02-23T13:37:01.844Z,2.35
2024-02-23T13:40:04.782Z,2.22
2024-02-23T13:43:06.382Z,2.10
2024-02-23T13:46:08.473Z,2.08
2024-02-23T13:49:10.934Z,2.47
2024-02-23T13:52:12.906Z,2.47
2024-02-23T13:55:15.489Z,3.10
2024-02-23T13:58:18.575Z,2.80
2024-02-23T14:01:20.489Z,3.67
2024-02-23T14:04:22.331Z,2.75
2024-02-23T14:07:23.921Z,3.75
2024-02-23T14:10:25.580Z,3.38
2024-02-23T14:13:27.867Z,3.85
2024-02-23T14:16:29.910Z,2.97
2024-02-23T14:19:31.624Z,3.60
2024-02-23T14:22:33.380Z,4.18
2024-02-23T14:25:34.973Z,3.00
2024-02-23T14:28:36.612Z,3.10
2024-02-23T14:31:38.308Z,2.85
2024-02-23T14:34:39.954Z,2.33
2024-02-23T14:37:41.586Z,3.05
2024-02-23T14:40:43.899Z,2.25
2024-02-23T14:43:45.537Z,2.10
2024-02-23T14:46:47.072Z,2.65
2024-02-23T14:49:48.823Z,3.25
2024-02-23T14:52:50.816Z,3.95
2024-02-23T14:55:53.814Z,3.45
2024-02-23T14:58:55.456Z,4.43
2024-02-23T15:01:57.151Z,4.60
2024-02-23T15:04:59.010Z,5.40
2024-02-23T15:08:00.699Z,5.93
2024-02-23T15:11:02.573Z,5.45
2024-02-23T15:14:04.258Z,6.32
2024-02-23T15:17:05.935Z,4.35
2024-02-23T15:20:09.793Z,4.80
2024-02-23T15:23:11.634Z,3.25
2024-02-23T15:26:13.612Z,2.45
2024-02-23T15:29:15.347Z,3.75
2024-02-23T15:32:18.530Z,2.70
2024-02-23T15:35:20.303Z,4.20
2024-02-23T15:38:22.094Z,4.38
2024-02-23T15:41:23.771Z,4.75
2024-02-23T15:44:25.465Z,3.00
2024-02-23T15:47:27.219Z,3.78
2024-02-23T15:50:43.573Z,3.75
2024-02-23T15:53:51.389Z,4.32
2024-02-23T15:56:53.064Z,3.35
2024-02-23T16:00:02.615Z,4.05
2024-02-23T16:03:06.240Z,2.80
2024-02-23T16:06:08.100Z,3.28
2024-02-23T16:09:10.242Z,1.77
2024-02-23T16:12:12.126Z,3.28
2024-02-23T16:15:13.871Z,2.88
2024-02-23T16:18:15.622Z,2.63
2024-02-23T16:21:17.569Z,3.05
2024-02-23T16:24:19.319Z,2.20
2024-02-23T16:27:20.987Z,2.60
2024-02-23T16:30:22.577Z,2.47
2024-02-23T16:33:24.193Z,2.75
2024-02-23T16:36:25.833Z,2.83
2024-02-23T16:39:27.466Z,3.75
2024-02-23T16:42:29.193Z,2.65
2024-02-23T16:45:31.023Z,2.10
2024-02-23T16:48:32.670Z,3.45
2024-02-23T16:51:34.409Z,2.92
2024-02-23T16:54:36.112Z,3.17
2024-02-23T16:57:37.883Z,3.10
2024-02-23T17:00:39.616Z,2.88
2024-02-23T17:03:41.431Z,2.35
2024-02-23T17:06:43.288Z,2.63
2024-02-23T17:09:47.520Z,2.67
2024-02-23T17:12:50.099Z,3.05
2024-02-23T17:15:51.736Z,2.25
2024-02-23T17:18:53.294Z,2.83
2024-02-23T17:21:54.922Z,2.80
2024-02-23T17:24:57.089Z,2.40
2024-02-23T17:27:58.672Z,3.38
2024-02-23T17:31:00.354Z,4.00
2024-02-23T17:34:01.979Z,3.97
2024-02-23T17:37:03.748Z,3.40
2024-02-23T17:40:05.852Z,2.78
2024-02-23T17:43:07.468Z,3.42
2024-02-23T17:46:09.230Z,3.47
2024-02-23T17:49:11.353Z,3.53
2024-02-23T17:52:12.950Z,3.35
2024-02-23T17:55:14.634Z,3.55
2024-02-23T17:58:20.367Z,3.40
2024-02-23T18:01:22.820Z,2.90
2024-02-23T18:04:24.699Z,2.75
2024-02-23T18:07:26.371Z,3.15
2024-02-23T18:10:27.950Z,3.45
2024-02-23T18:13:29.667Z,2.88
2024-02-23T18:16:32.144Z,2.90
2024-02-23T18:19:34.398Z,4.40
2024-02-23T18:22:36.067Z,3.55
2024-02-23T18:25:37.810Z,3.80
2024-02-23T18:28:39.375Z,3.70
2024-02-23T18:31:40.984Z,3.50
2024-02-23T18:34:42.597Z,3.75
2024-02-23T18:37:46.368Z,3.55
2024-02-23T18:40:48.977Z,4.00
2024-02-23T18:43:50.824Z,2.78
2024-02-23T18:46:52.450Z,4.55
2024-02-23T18:49:54.052Z,4.07
2024-02-23T18:52:55.774Z,2.72
2024-02-23T18:55:57.641Z,3.28
2024-02-23T18:58:59.292Z,3.33
2024-02-23T19:02:01.116Z,3.88
2024-02-23T19:05:03.189Z,2.85
2024-02-23T19:08:05.412Z,2.80
2024-02-23T19:11:07.329Z,3.65
2024-02-23T19:14:09.200Z,2.65
2024-02-23T19:17:11.593Z,2.78
2024-02-23T19:20:13.330Z,2.53
2024-02-23T19:23:15.023Z,2.85
2024-02-23T19:26:16.738Z,3.80
2024-02-23T19:29:18.384Z,2.83
2024-02-23T19:32:20.131Z,2.40
2024-02-23T19:35:21.788Z,3.58
2024-02-23T19:38:23.497Z,2.63
2024-02-23T19:41:26.739Z,2.92
2024-02-23T19:44:30.374Z,2.65
2024-02-23T19:47:33.008Z,2.78
2024-02-23T19:50:34.713Z,2.60
2024-02-23T19:53:36.920Z,2.05
2024-02-23T19:56:38.639Z,2.70
2024-02-23T19:59:41.268Z,2.35
2024-02-23T20:02:43.073Z,3.13
2024-02-23T20:05:44.699Z,3.10
2024-02-23T20:08:46.322Z,2.45
2024-02-23T20:11:49.497Z,2.97
2024-02-23T20:14:51.351Z,2.58
2024-02-23T20:17:54.369Z,2.75
2024-02-23T20:20:56.301Z,2.83
2024-02-23T20:23:57.884Z,2.75
2024-02-23T20:27:01.395Z,2.35
2024-02-23T20:30:06.808Z,2.80
2024-02-23T20:33:09.926Z,2.35
2024-02-23T20:36:11.572Z,3.13
2024-02-23T20:39:14.758Z,2.20
2024-02-23T20:42:16.415Z,3.40
2024-02-23T20:45:18.440Z,2.15
2024-02-23T20:48:20.101Z,3.88
2024-02-23T20:51:24.875Z,3.22
2024-02-23T20:54:26.555Z,2.67
2024-02-23T20:57:28.177Z,2.47
2024-02-23T21:00:30.051Z,2.83
2024-02-23T21:03:31.662Z,2.17
2024-02-23T21:06:34.200Z,2.63
2024-02-23T21:09:35.792Z,2.47
2024-02-23T21:12:38.619Z,2.60
2024-02-23T21:15:40.232Z,2.42
2024-02-23T21:18:42.002Z,3.00
2024-02-23T21:21:44.115Z,2.13
2024-02-23T21:24:48.274Z,2.33
2024-02-23T21:27:49.950Z,2.65
2024-02-23T21:30:54.829Z,2.20
2024-02-23T21:33:58.082Z,2.38
2024-02-23T21:37:00.447Z,2.90
2024-02-23T21:40:02.179Z,1.92
2024-02-23T21:43:05.096Z,2.30
2024-02-23T21:46:12.970Z,2.38
2024-02-23T21:49:14.665Z,2.03
2024-02-23T21:52:16.329Z,2.15
2024-02-23T21:55:22.509Z,1.73
2024-02-23T21:58:24.178Z,2.28
2024-02-23T22:01:25.857Z,2.47
2024-02-23T22:04:27.579Z,2.60
2024-02-23T22:07:29.337Z,2.72
2024-02-23T22:10:30.926Z,1.15
2024-02-23T22:13:32.580Z,1.48
2024-02-23T22:16:34.180Z,1.48
2024-02-23T22:19:35.880Z,1.90
2024-02-23T22:22:37.661Z,1.42
2024-02-23T22:25:39.241Z,1.60
2024-02-23T22:28:42.827Z,2.03
2024-02-23T22:31:48.002Z,1.70
2024-02-23T22:34:50.027Z,1.90
2024-02-23T22:37:51.671Z,2.70
2024-02-23T22:40:53.918Z,2.72
2024-02-23T22:43:55.532Z,2.10
2024-02-23T22:46:57.787Z,2.10
2024-02-23T22:49:59.524Z,2.25
2024-02-23T22:53:01.298Z,2.00
2024-02-23T22:56:02.973Z,2.10
2024-02-23T22:59:10.274Z,1.40
2024-02-23T23:02:12.110Z,1.60
2024-02-23T23:05:13.994Z,2.35
2024-02-23T23:08:16.895Z,1.52
2024-02-23T23:11:18.664Z,1.23
2024-02-23T23:14:20.374Z,1.60
2024-02-23T23:17:22.127Z,1.20
2024-02-23T23:20:23.789Z,1.23
2024-02-23T23:23:25.591Z,1.50
2024-02-23T23:26:27.327Z,1.40
2024-02-23T23:29:29.028Z,1.27
2024-02-23T23:32:30.824Z,1.77
2024-02-23T23:35:32.519Z,2.08
2024-02-23T23:38:34.385Z,1.88
2024-02-23T23:41:36.012Z,1.30
2024-02-23T23:44:38.017Z,1.92
2024-02-23T23:47:39.741Z,1.48
2024-02-23T23:50:41.488Z,1.25
2024-02-23T23:53:43.259Z,1.33
2024-02-23T23:56:44.975Z,1.40
2024-02-23T23:59:47.465Z,1.50
